Terminal Aerodrome Forecast
Issued by NWS

Home | Current Version | Previous Version | Text Only | Print | Product List | Glossary On
Versions: 1 2 3 4 5 6 7 8 9 10 11 12 13 14 15
000
FTAK31 PAJN 251700
TAFAKT
TAF
PAKT 251720Z 2518/2618 14007KT P6SM BKN025
      TEMPO 2518/2520 SCT070 BKN100
     FM252200 14012KT P6SM VCSH SCT060 BKN090
     FM260300 14012G22KT P6SM SCT040 BKN060 BKN090
     FM260900 14020G30KT P6SM VCSH BKN040 OVC060
     FM261600 14020G30KT 5SM -RA BR SCT015 BKN030 OVC040
      AMD LTD TO CLD VIS AND WIND 2606/2615=

USA.gov is the U.S. government's official web portal to all federal, state and local government web resources and services.